sensor_id;sensor_type;location;lat;lon;timestamp;pressure;altitude;pressure_sealevel;temperature;humidity
43745;BME280;29359;53.048;8.732;2023-02-24T00:01:22;101456.25;;;3.61;86.93
43745;BME280;29359;53.048;8.732;2023-02-24T00:03:28;101455.38;;;3.61;86.60
43745;BME280;29359;53.048;8.732;2023-02-24T00:05:33;101448.41;;;3.61;87.14
43745;BME280;29359;53.048;8.732;2023-02-24T00:07:34;101440.56;;;3.60;87.31
43745;BME280;29359;53.048;8.732;2023-02-24T00:09:36;101443.19;;;3.60;86.63
43745;BME280;29359;53.048;8.732;2023-02-24T00:11:41;101443.16;;;3.58;86.87
43745;BME280;29359;53.048;8.732;2023-02-24T00:13:44;101441.41;;;3.56;87.41
43745;BME280;29359;53.048;8.732;2023-02-24T00:16:02;101444.03;;;3.57;87.10
43745;BME280;29359;53.048;8.732;2023-02-24T00:18:05;101437.06;;;3.56;87.24
43745;BME280;29359;53.048;8.732;2023-02-24T00:20:08;101431.84;;;3.56;87.42
43745;BME280;29359;53.048;8.732;2023-02-24T00:22:12;101422.28;;;3.57;87.56
43745;BME280;29359;53.048;8.732;2023-02-24T00:24:14;101422.25;;;3.55;87.63
43745;BME280;29359;53.048;8.732;2023-02-24T00:26:15;101413.56;;;3.55;87.10
43745;BME280;29359;53.048;8.732;2023-02-24T00:28:17;101418.78;;;3.56;87.24
43745;BME280;29359;53.048;8.732;2023-02-24T00:30:18;101413.56;;;3.55;86.41
43745;BME280;29359;53.048;8.732;2023-02-24T00:32:21;101410.06;;;3.56;86.65
43745;BME280;29359;53.048;8.732;2023-02-24T00:34:27;101410.94;;;3.56;86.10
43745;BME280;29359;53.048;8.732;2023-02-24T00:36:30;101406.59;;;3.57;84.93
43745;BME280;29359;53.048;8.732;2023-02-24T00:38:35;101407.47;;;3.57;84.09
43745;BME280;29359;53.048;8.732;2023-02-24T00:40:37;101401.38;;;3.57;84.66
43745;BME280;29359;53.048;8.732;2023-02-24T00:42:38;101398.78;;;3.58;84.57
43745;BME280;29359;53.048;8.732;2023-02-24T00:44:43;101391.84;;;3.62;84.02
43745;BME280;29359;53.048;8.732;2023-02-24T00:46:45;101397.06;;;3.60;83.77
43745;BME280;29359;53.048;8.732;2023-02-24T00:48:50;101392.72;;;3.61;83.96
43745;BME280;29359;53.048;8.732;2023-02-24T00:50:55;101384.03;;;3.62;84.20
43745;BME280;29359;53.048;8.732;2023-02-24T00:52:56;101386.66;;;3.63;84.45
43745;BME280;29359;53.048;8.732;2023-02-24T00:54:58;101375.31;;;3.61;84.16
43745;BME280;29359;53.048;8.732;2023-02-24T00:56:59;101370.97;;;3.62;84.27
43745;BME280;29359;53.048;8.732;2023-02-24T00:59:03;101372.72;;;3.61;83.89
43745;BME280;29359;53.048;8.732;2023-02-24T01:01:04;101363.13;;;3.62;84.56
43745;BME280;29359;53.048;8.732;2023-02-24T01:03:13;101357.91;;;3.62;83.98
43745;BME280;29359;53.048;8.732;2023-02-24T01:05:15;101350.09;;;3.63;83.74
43745;BME280;29359;53.048;8.732;2023-02-24T01:07:17;101344.88;;;3.63;83.02
43745;BME280;29359;53.048;8.732;2023-02-24T01:09:19;101341.38;;;3.63;83.58
43745;BME280;29359;53.048;8.732;2023-02-24T01:11:24;101339.66;;;3.63;83.14
43745;BME280;29359;53.048;8.732;2023-02-24T01:13:45;101334.44;;;3.65;82.48
43745;BME280;29359;53.048;8.732;2023-02-24T01:15:46;101334.47;;;3.66;81.58
43745;BME280;29359;53.048;8.732;2023-02-24T01:17:48;101332.72;;;3.67;81.82
43745;BME280;29359;53.048;8.732;2023-02-24T01:19:49;101329.22;;;3.66;81.89
43745;BME280;29359;53.048;8.732;2023-02-24T01:21:52;101317.03;;;3.65;82.00
43745;BME280;29359;53.048;8.732;2023-02-24T01:23:56;101308.34;;;3.66;81.75
43745;BME280;29359;53.048;8.732;2023-02-24T01:25:58;101309.22;;;3.67;81.51
43745;BME280;29359;53.048;8.732;2023-02-24T01:28:00;101303.13;;;3.68;81.32
43745;BME280;29359;53.048;8.732;2023-02-24T01:30:02;101305.75;;;3.68;81.32
43745;BME280;29359;53.048;8.732;2023-02-24T01:32:13;101301.38;;;3.67;81.31
43745;BME280;29359;53.048;8.732;2023-02-24T01:34:17;101295.31;;;3.68;81.31
43745;BME280;29359;53.048;8.732;2023-02-24T01:36:22;101290.06;;;3.68;80.80
43745;BME280;29359;53.048;8.732;2023-02-24T01:38:25;101291.81;;;3.67;80.73
43745;BME280;29359;53.048;8.732;2023-02-24T01:40:27;101297.03;;;3.67;81.20
43745;BME280;29359;53.048;8.732;2023-02-24T01:42:28;101291.81;;;3.66;80.69
43745;BME280;29359;53.048;8.732;2023-02-24T01:46:35;101280.50;;;3.65;81.03
43745;BME280;29359;53.048;8.732;2023-02-24T01:48:37;101281.38;;;3.66;81.47
43745;BME280;29359;53.048;8.732;2023-02-24T01:50:39;101276.13;;;3.66;81.17
43745;BME280;29359;53.048;8.732;2023-02-24T01:52:42;101264.81;;;3.64;81.09
43745;BME280;29359;53.048;8.732;2023-02-24T01:54:51;101270.03;;;3.65;81.32
43745;BME280;29359;53.048;8.732;2023-02-24T01:56:56;101266.56;;;3.65;81.08
43745;BME280;29359;53.048;8.732;2023-02-24T01:58:59;101264.81;;;3.65;81.37
43745;BME280;29359;53.048;8.732;2023-02-24T02:01:02;101253.50;;;3.63;81.36
43745;BME280;29359;53.048;8.732;2023-02-24T02:03:28;101249.16;;;3.64;81.53
43745;BME280;29359;53.048;8.732;2023-02-24T02:05:31;101244.78;;;3.63;80.73
43745;BME280;29359;53.048;8.732;2023-02-24T02:07:32;101234.34;;;3.61;80.74
43745;BME280;29359;53.048;8.732;2023-02-24T02:09:34;101241.28;;;3.61;80.68
43745;BME280;29359;53.048;8.732;2023-02-24T02:11:36;101228.22;;;3.58;81.16
43745;BME280;29359;53.048;8.732;2023-02-24T02:13:41;101227.34;;;3.56;80.99
43745;BME280;29359;53.048;8.732;2023-02-24T02:15:55;101228.22;;;3.56;80.91
43745;BME280;29359;53.048;8.732;2023-02-24T02:21:22;101218.63;;;3.55;80.50
43745;BME280;29359;53.048;8.732;2023-02-24T02:23:53;101221.25;;;3.54;80.58
43745;BME280;29359;53.048;8.732;2023-02-24T02:35:31;101208.97;;;3.46;81.19
43745;BME280;29359;53.048;8.732;2023-02-24T02:40:10;101199.41;;;3.45;81.78
43745;BME280;29359;53.048;8.732;2023-02-24T02:42:29;101193.31;;;3.46;81.87
43745;BME280;29359;53.048;8.732;2023-02-24T02:44:36;101185.50;;;3.46;82.29
43745;BME280;29359;53.048;8.732;2023-02-24T02:49:30;101192.50;;;3.47;82.12
43745;BME280;29359;53.048;8.732;2023-02-24T02:51:35;101188.09;;;3.46;82.49
43745;BME280;29359;53.048;8.732;2023-02-24T02:53:57;101187.25;;;3.47;82.48
43745;BME280;29359;53.048;8.732;2023-02-24T02:56:07;101186.34;;;3.45;82.65
43745;BME280;29359;53.048;8.732;2023-02-24T02:58:20;101182.00;;;3.46;82.77
43745;BME280;29359;53.048;8.732;2023-02-24T03:00:30;101179.41;;;3.46;81.97
43745;BME280;29359;53.048;8.732;2023-02-24T03:02:38;101181.13;;;3.45;82.21
43745;BME280;29359;53.048;8.732;2023-02-24T03:04:48;101177.66;;;3.46;82.14
43745;BME280;29359;53.048;8.732;2023-02-24T03:06:56;101174.19;;;3.46;82.37
43745;BME280;29359;53.048;8.732;2023-02-24T03:11:14;101168.06;;;3.44;82.13
43745;BME280;29359;53.048;8.732;2023-02-24T03:13:21;101170.69;;;3.44;82.02
43745;BME280;29359;53.048;8.732;2023-02-24T03:15:29;101163.72;;;3.43;81.77
43745;BME280;29359;53.048;8.732;2023-02-24T03:17:36;101159.38;;;3.43;81.59
43745;BME280;29359;53.048;8.732;2023-02-24T03:19:41;101154.16;;;3.43;81.32
43745;BME280;29359;53.048;8.732;2023-02-24T03:21:56;101149.81;;;3.44;81.41
43745;BME280;29359;53.048;8.732;2023-02-24T03:24:00;101147.19;;;3.44;81.14
43745;BME280;29359;53.048;8.732;2023-02-24T03:28:29;101143.72;;;3.46;80.59
43745;BME280;29359;53.048;8.732;2023-02-24T03:30:40;101135.00;;;3.44;81.12
43745;BME280;29359;53.048;8.732;2023-02-24T03:32:57;101133.28;;;3.46;80.56
43745;BME280;29359;53.048;8.732;2023-02-24T03:35:28;101129.78;;;3.44;80.20
43745;BME280;29359;53.048;8.732;2023-02-24T03:37:30;101128.03;;;3.42;80.42
43745;BME280;29359;53.048;8.732;2023-02-24T03:39:33;101127.19;;;3.43;80.30
43745;BME280;29359;53.048;8.732;2023-02-24T03:41:48;101121.09;;;3.42;80.22
43745;BME280;29359;53.048;8.732;2023-02-24T03:43:54;101123.69;;;3.41;80.60
43745;BME280;29359;53.048;8.732;2023-02-24T03:45:58;101127.16;;;3.40;80.62
43745;BME280;29359;53.048;8.732;2023-02-24T03:48:01;101121.06;;;3.41;80.51
43745;BME280;29359;53.048;8.732;2023-02-24T03:50:15;101111.50;;;3.41;80.46
43745;BME280;29359;53.048;8.732;2023-02-24T03:52:39;101104.56;;;3.42;79.91
43745;BME280;29359;53.048;8.732;2023-02-24T03:54:52;101106.28;;;3.41;80.18
43745;BME280;29359;53.048;8.732;2023-02-24T04:02:04;101093.22;;;3.38;79.97
43745;BME280;29359;53.048;8.732;2023-02-24T04:04:22;101094.09;;;3.40;80.36
43745;BME280;29359;53.048;8.732;2023-02-24T04:06:42;101095.84;;;3.40;80.29
43745;BME280;29359;53.048;8.732;2023-02-24T04:08:53;101087.16;;;3.39;79.99
43745;BME280;29359;53.048;8.732;2023-02-24T04:11:16;101086.28;;;3.39;80.26
43745;BME280;29359;53.048;8.732;2023-02-24T04:13:36;101079.31;;;3.36;80.94
43745;BME280;29359;53.048;8.732;2023-02-24T04:15:42;101076.69;;;3.38;80.75
43745;BME280;29359;53.048;8.732;2023-02-24T04:17:51;101065.38;;;3.37;80.94
43745;BME280;29359;53.048;8.732;2023-02-24T04:19:57;101062.78;;;3.39;80.67
43745;BME280;29359;53.048;8.732;2023-02-24T04:21:59;101053.22;;;3.38;80.65
43745;BME280;29359;53.048;8.732;2023-02-24T04:24:03;101055.81;;;3.39;80.53
43745;BME280;29359;53.048;8.732;2023-02-24T04:26:15;101045.41;;;3.41;80.51
43745;BME280;29359;53.048;8.732;2023-02-24T04:28:20;101048.00;;;3.39;80.72
43745;BME280;29359;53.048;8.732;2023-02-24T04:30:29;101036.69;;;3.39;80.83
43745;BME280;29359;53.048;8.732;2023-02-24T04:32:31;101034.94;;;3.38;81.33
43745;BME280;29359;53.048;8.732;2023-02-24T04:34:33;101028.00;;;3.38;81.38
43745;BME280;29359;53.048;8.732;2023-02-24T04:36:35;101025.38;;;3.38;81.75
43745;BME280;29359;53.048;8.732;2023-02-24T04:38:38;101019.28;;;3.38;81.75
43745;BME280;29359;53.048;8.732;2023-02-24T04:40:40;101014.94;;;3.38;82.04
43745;BME280;29359;53.048;8.732;2023-02-24T04:42:43;101007.97;;;3.37;81.65
43745;BME280;29359;53.048;8.732;2023-02-24T04:44:49;100997.53;;;3.36;81.92
43745;BME280;29359;53.048;8.732;2023-02-24T04:46:50;101001.88;;;3.37;82.53
43745;BME280;29359;53.048;8.732;2023-02-24T04:48:52;100992.31;;;3.36;82.05
43745;BME280;29359;53.048;8.732;2023-02-24T04:50:53;100982.75;;;3.36;82.34
43745;BME280;29359;53.048;8.732;2023-02-24T04:52:58;100986.22;;;3.35;83.08
43745;BME280;29359;53.048;8.732;2023-02-24T04:55:03;100984.47;;;3.34;82.94
43745;BME280;29359;53.048;8.732;2023-02-24T04:57:10;100963.59;;;3.34;83.65
43745;BME280;29359;53.048;8.732;2023-02-24T04:59:13;100970.56;;;3.32;83.80
43745;BME280;29359;53.048;8.732;2023-02-24T05:01:15;100969.69;;;3.33;83.05
43745;BME280;29359;53.048;8.732;2023-02-24T05:03:17;100965.34;;;3.34;83.33
43745;BME280;29359;53.048;8.732;2023-02-24T05:05:21;100960.13;;;3.31;83.03
43745;BME280;29359;53.048;8.732;2023-02-24T05:07:25;100947.94;;;3.30;83.27
43745;BME280;29359;53.048;8.732;2023-02-24T05:09:29;100940.97;;;3.29;83.54
43745;BME280;29359;53.048;8.732;2023-02-24T05:11:30;100937.50;;;3.28;83.61
43745;BME280;29359;53.048;8.732;2023-02-24T05:13:35;100937.50;;;3.27;83.96
43745;BME280;29359;53.048;8.732;2023-02-24T05:15:40;100938.38;;;3.27;84.09
43745;BME280;29359;53.048;8.732;2023-02-24T05:17:41;100934.88;;;3.27;84.18
43745;BME280;29359;53.048;8.732;2023-02-24T05:19:43;100928.78;;;3.26;84.35
43745;BME280;29359;53.048;8.732;2023-02-24T05:22:04;100921.84;;;3.24;84.30
43745;BME280;29359;53.048;8.732;2023-02-24T05:24:07;100920.97;;;3.25;84.32
43745;BME280;29359;53.048;8.732;2023-02-24T05:26:10;100908.78;;;3.24;84.38
43745;BME280;29359;53.048;8.732;2023-02-24T05:28:12;100907.91;;;3.23;84.26
43745;BME280;29359;53.048;8.732;2023-02-24T05:30:14;100904.44;;;3.23;84.54
43745;BME280;29359;53.048;8.732;2023-02-24T05:32:15;100893.13;;;3.22;84.36
43745;BME280;29359;53.048;8.732;2023-02-24T05:34:17;100888.78;;;3.23;84.95
43745;BME280;29359;53.048;8.732;2023-02-24T05:36:20;100891.41;;;3.24;85.00
43745;BME280;29359;53.048;8.732;2023-02-24T05:38:21;100883.56;;;3.24;84.98
43745;BME280;29359;53.048;8.732;2023-02-24T05:40:23;100874.88;;;3.22;85.23
43745;BME280;29359;53.048;8.732;2023-02-24T05:42:25;100866.19;;;3.25;85.03
43745;BME280;29359;53.048;8.732;2023-02-24T05:44:27;100862.69;;;3.26;84.91
43745;BME280;29359;53.048;8.732;2023-02-24T05:46:35;100867.91;;;3.27;85.07
43745;BME280;29359;53.048;8.732;2023-02-24T05:48:37;100856.63;;;3.31;85.23
43745;BME280;29359;53.048;8.732;2023-02-24T05:50:38;100843.56;;;3.30;85.63
43745;BME280;29359;53.048;8.732;2023-02-24T05:52:40;100846.19;;;3.30;85.93
43745;BME280;29359;53.048;8.732;2023-02-24T05:54:42;100846.19;;;3.31;85.77
43745;BME280;29359;53.048;8.732;2023-02-24T05:56:45;100839.22;;;3.32;86.02
43745;BME280;29359;53.048;8.732;2023-02-24T05:58:46;100825.31;;;3.34;85.85
43745;BME280;29359;53.048;8.732;2023-02-24T06:00:48;100824.44;;;3.34;85.88
43745;BME280;29359;53.048;8.732;2023-02-24T06:02:50;100825.31;;;3.36;85.66
43745;BME280;29359;53.048;8.732;2023-02-24T06:04:52;100818.34;;;3.36;85.52
43745;BME280;29359;53.048;8.732;2023-02-24T06:06:55;100813.13;;;3.35;85.68
43745;BME280;29359;53.048;8.732;2023-02-24T06:08:57;100815.75;;;3.35;85.85
43745;BME280;29359;53.048;8.732;2023-02-24T06:10:58;100810.53;;;3.36;85.71
43745;BME280;29359;53.048;8.732;2023-02-24T06:13:00;100814.88;;;3.37;85.61
43745;BME280;29359;53.048;8.732;2023-02-24T06:15:02;100811.38;;;3.37;85.61
43745;BME280;29359;53.048;8.732;2023-02-24T06:17:08;100811.38;;;3.38;85.58
43745;BME280;29359;53.048;8.732;2023-02-24T06:19:10;100801.81;;;3.39;85.24
43745;BME280;29359;53.048;8.732;2023-02-24T06:21:12;100803.56;;;3.40;85.70
43745;BME280;29359;53.048;8.732;2023-02-24T06:23:13;100807.03;;;3.40;85.19
43745;BME280;29359;53.048;8.732;2023-02-24T06:25:17;100803.56;;;3.41;84.81
43745;BME280;29359;53.048;8.732;2023-02-24T06:27:19;100801.81;;;3.42;85.04
43745;BME280;29359;53.048;8.732;2023-02-24T06:29:22;100808.78;;;3.41;85.24
43745;BME280;29359;53.048;8.732;2023-02-24T06:31:29;100808.78;;;3.40;85.96
43745;BME280;29359;53.048;8.732;2023-02-24T06:33:33;100804.44;;;3.39;86.08
43745;BME280;29359;53.048;8.732;2023-02-24T06:35:36;100805.31;;;3.39;86.39
43745;BME280;29359;53.048;8.732;2023-02-24T06:37:39;100795.75;;;3.38;86.60
43745;BME280;29359;53.048;8.732;2023-02-24T06:39:41;100795.75;;;3.35;86.95
43745;BME280;29359;53.048;8.732;2023-02-24T06:41:44;100785.31;;;3.32;87.54
43745;BME280;29359;53.048;8.732;2023-02-24T06:43:45;100788.78;;;3.28;87.81
43745;BME280;29359;53.048;8.732;2023-02-24T06:45:48;100789.66;;;3.26;88.30
43745;BME280;29359;53.048;8.732;2023-02-24T06:47:50;100780.06;;;3.20;88.23
43745;BME280;29359;53.048;8.732;2023-02-24T06:49:52;100779.22;;;3.20;88.57
43745;BME280;29359;53.048;8.732;2023-02-24T06:51:54;100783.56;;;3.16;89.21
43745;BME280;29359;53.048;8.732;2023-02-24T06:53:57;100764.44;;;3.11;89.77
43745;BME280;29359;53.048;8.732;2023-02-24T06:56:04;100765.28;;;3.13;90.25
43745;BME280;29359;53.048;8.732;2023-02-24T06:58:14;100760.06;;;3.07;90.47
43745;BME280;29359;53.048;8.732;2023-02-24T07:00:17;100750.47;;;3.03;91.16
43745;BME280;29359;53.048;8.732;2023-02-24T07:02:20;100752.22;;;3.01;91.33
43745;BME280;29359;53.048;8.732;2023-02-24T07:04:25;100746.13;;;2.97;92.17
43745;BME280;29359;53.048;8.732;2023-02-24T07:06:34;100747.00;;;2.98;92.54
43745;BME280;29359;53.048;8.732;2023-02-24T07:08:37;100744.38;;;2.98;92.81
43745;BME280;29359;53.048;8.732;2023-02-24T07:10:38;100736.56;;;2.98;93.38
43745;BME280;29359;53.048;8.732;2023-02-24T07:12:40;100730.47;;;2.97;93.10
43745;BME280;29359;53.048;8.732;2023-02-24T07:14:41;100714.84;;;2.94;93.24
43745;BME280;29359;53.048;8.732;2023-02-24T07:16:42;100718.31;;;2.95;93.65
43745;BME280;29359;53.048;8.732;2023-02-24T07:18:45;100713.97;;;2.95;93.85
43745;BME280;29359;53.048;8.732;2023-02-24T07:20:48;100701.78;;;2.96;93.93
43745;BME280;29359;53.048;8.732;2023-02-24T07:22:50;100713.09;;;2.95;94.14
43745;BME280;29359;53.048;8.732;2023-02-24T07:24:52;100707.00;;;2.93;94.02
43745;BME280;29359;53.048;8.732;2023-02-24T07:27:09;100704.41;;;2.96;94.11
43745;BME280;29359;53.048;8.732;2023-02-24T07:29:12;100700.91;;;2.94;94.35
43745;BME280;29359;53.048;8.732;2023-02-24T07:31:16;100696.56;;;2.93;94.43
43745;BME280;29359;53.048;8.732;2023-02-24T07:33:18;100691.34;;;2.93;94.50
43745;BME280;29359;53.048;8.732;2023-02-24T07:35:20;100678.31;;;2.93;94.55
43745;BME280;29359;53.048;8.732;2023-02-24T07:37:21;100684.41;;;2.92;94.74
43745;BME280;29359;53.048;8.732;2023-02-24T07:39:24;100674.84;;;2.91;94.37
43745;BME280;29359;53.048;8.732;2023-02-24T07:41:26;100687.88;;;2.92;95.14
43745;BME280;29359;53.048;8.732;2023-02-24T07:43:34;100668.75;;;2.92;95.07
43745;BME280;29359;53.048;8.732;2023-02-24T07:45:35;100667.91;;;2.90;94.99
43745;BME280;29359;53.048;8.732;2023-02-24T07:47:37;100679.19;;;2.90;95.36
43745;BME280;29359;53.048;8.732;2023-02-24T07:49:39;100675.72;;;2.90;95.66
43745;BME280;29359;53.048;8.732;2023-02-24T07:51:41;100667.03;;;2.88;95.75
43745;BME280;29359;53.048;8.732;2023-02-24T07:53:43;100667.03;;;2.88;95.93
43745;BME280;29359;53.048;8.732;2023-02-24T07:55:45;100662.69;;;2.87;96.12
43745;BME280;29359;53.048;8.732;2023-02-24T07:57:47;100660.94;;;2.84;96.20
43745;BME280;29359;53.048;8.732;2023-02-24T07:59:48;100666.16;;;2.82;96.68
43745;BME280;29359;53.048;8.732;2023-02-24T08:01:50;100660.06;;;2.83;96.96
43745;BME280;29359;53.048;8.732;2023-02-24T08:03:57;100663.56;;;2.82;97.16
43745;BME280;29359;53.048;8.732;2023-02-24T08:06:01;100648.78;;;2.81;97.49
43745;BME280;29359;53.048;8.732;2023-02-24T08:08:15;100644.44;;;2.80;97.75
43745;BME280;29359;53.048;8.732;2023-02-24T08:10:21;100635.75;;;2.78;98.05
43745;BME280;29359;53.048;8.732;2023-02-24T08:12:25;100636.63;;;2.76;98.46
43745;BME280;29359;53.048;8.732;2023-02-24T08:14:29;100630.53;;;2.75;98.65
43745;BME280;29359;53.048;8.732;2023-02-24T08:16:35;100627.06;;;2.73;98.73
43745;BME280;29359;53.048;8.732;2023-02-24T08:18:40;100630.53;;;2.75;98.87
43745;BME280;29359;53.048;8.732;2023-02-24T08:20:48;100621.84;;;2.70;99.01
43745;BME280;29359;53.048;8.732;2023-02-24T08:22:54;100620.97;;;2.68;99.48
43745;BME280;29359;53.048;8.732;2023-02-24T08:24:57;100622.72;;;2.66;99.27
43745;BME280;29359;53.048;8.732;2023-02-24T08:27:06;100613.16;;;2.62;99.71
43745;BME280;29359;53.048;8.732;2023-02-24T08:29:07;100610.53;;;2.61;99.73
43745;BME280;29359;53.048;8.732;2023-02-24T08:31:09;100611.38;;;2.60;100.00
43745;BME280;29359;53.048;8.732;2023-02-24T08:33:18;100601.84;;;2.62;100.00
43745;BME280;29359;53.048;8.732;2023-02-24T08:35:20;100590.53;;;2.53;100.00
43745;BME280;29359;53.048;8.732;2023-02-24T08:37:24;100593.13;;;2.53;100.00
43745;BME280;29359;53.048;8.732;2023-02-24T08:39:25;100575.78;;;2.49;100.00
43745;BME280;29359;53.048;8.732;2023-02-24T08:41:30;100574.91;;;2.49;100.00
43745;BME280;29359;53.048;8.732;2023-02-24T08:43:46;100581.84;;;2.48;100.00
43745;BME280;29359;53.048;8.732;2023-02-24T08:45:54;100567.09;;;2.50;100.00
43745;BME280;29359;53.048;8.732;2023-02-24T08:47:59;100571.44;;;2.51;100.00
43745;BME280;29359;53.048;8.732;2023-02-24T08:50:01;100556.66;;;2.52;100.00
43745;BME280;29359;53.048;8.732;2023-02-24T08:52:07;100557.53;;;2.52;100.00
43745;BME280;29359;53.048;8.732;2023-02-24T08:54:12;100554.91;;;2.56;100.00
43745;BME280;29359;53.048;8.732;2023-02-24T08:56:17;100554.91;;;2.56;100.00
43745;BME280;29359;53.048;8.732;2023-02-24T08:58:25;100551.44;;;2.57;100.00
43745;BME280;29359;53.048;8.732;2023-02-24T09:00:31;100548.84;;;2.58;100.00
43745;BME280;29359;53.048;8.732;2023-02-24T09:02:49;100544.50;;;2.59;100.00
43745;BME280;29359;53.048;8.732;2023-02-24T09:05:04;100533.19;;;2.58;100.00
43745;BME280;29359;53.048;8.732;2023-02-24T09:07:17;100534.06;;;2.59;100.00
43745;BME280;29359;53.048;8.732;2023-02-24T09:09:19;100532.34;;;2.56;100.00
43745;BME280;29359;53.048;8.732;2023-02-24T09:11:21;100525.38;;;2.57;100.00
43745;BME280;29359;53.048;8.732;2023-02-24T09:13:23;100519.31;;;2.58;100.00
43745;BME280;29359;53.048;8.732;2023-02-24T09:15:33;100521.06;;;2.62;100.00
43745;BME280;29359;53.048;8.732;2023-02-24T09:17:43;100503.69;;;2.62;100.00
43745;BME280;29359;53.048;8.732;2023-02-24T09:19:49;100499.34;;;2.67;100.00
43745;BME280;29359;53.048;8.732;2023-02-24T09:21:50;100504.56;;;2.67;100.00
43745;BME280;29359;53.048;8.732;2023-02-24T09:23:52;100495.88;;;2.67;100.00
43745;BME280;29359;53.048;8.732;2023-02-24T09:25:54;100501.94;;;2.67;100.00
43745;BME280;29359;53.048;8.732;2023-02-24T09:28:11;100491.53;;;2.69;100.00
43745;BME280;29359;53.048;8.732;2023-02-24T09:30:23;100491.53;;;2.69;100.00
43745;BME280;29359;53.048;8.732;2023-02-24T09:32:37;100490.63;;;2.74;100.00
43745;BME280;29359;53.048;8.732;2023-02-24T09:34:40;100486.28;;;2.75;100.00
43745;BME280;29359;53.048;8.732;2023-02-24T09:36:44;100478.47;;;2.73;100.00
43745;BME280;29359;53.048;8.732;2023-02-24T09:41:00;100468.03;;;2.81;100.00
43745;BME280;29359;53.048;8.732;2023-02-24T09:43:20;100467.16;;;2.82;100.00
43745;BME280;29359;53.048;8.732;2023-02-24T09:45:24;100457.59;;;2.82;100.00
43745;BME280;29359;53.048;8.732;2023-02-24T09:47:42;100463.69;;;2.83;100.00
43745;BME280;29359;53.048;8.732;2023-02-24T09:50:02;100462.81;;;2.84;100.00
43745;BME280;29359;53.048;8.732;2023-02-24T09:52:13;100448.91;;;2.85;100.00
43745;BME280;29359;53.048;8.732;2023-02-24T09:54:19;100442.78;;;2.91;100.00
43745;BME280;29359;53.048;8.732;2023-02-24T09:56:30;100450.63;;;2.92;100.00
43745;BME280;29359;53.048;8.732;2023-02-24T09:58:50;100453.22;;;2.95;100.00
43745;BME280;29359;53.048;8.732;2023-02-24T10:00:59;100450.59;;;2.97;100.00
43745;BME280;29359;53.048;8.732;2023-02-24T10:03:34;100441.03;;;2.97;100.00
43745;BME280;29359;53.048;8.732;2023-02-24T10:06:03;100419.28;;;3.00;100.00
43745;BME280;29359;53.048;8.732;2023-02-24T10:08:18;100425.38;;;2.99;100.00
43745;BME280;29359;53.048;8.732;2023-02-24T10:10:28;100409.72;;;2.99;100.00
43745;BME280;29359;53.048;8.732;2023-02-24T10:12:36;100414.94;;;2.99;100.00
43745;BME280;29359;53.048;8.732;2023-02-24T10:15:01;100413.19;;;3.02;100.00
43745;BME280;29359;53.048;8.732;2023-02-24T10:17:32;100416.66;;;3.03;100.00
43745;BME280;29359;53.048;8.732;2023-02-24T10:19:41;100407.97;;;3.01;100.00
43745;BME280;29359;53.048;8.732;2023-02-24T10:24:11;100415.81;;;3.04;100.00
43745;BME280;29359;53.048;8.732;2023-02-24T10:26:23;100415.81;;;3.07;100.00
43745;BME280;29359;53.048;8.732;2023-02-24T10:28:45;100405.38;;;3.07;100.00
43745;BME280;29359;53.048;8.732;2023-02-24T10:31:12;100395.81;;;3.09;100.00
43745;BME280;29359;53.048;8.732;2023-02-24T10:33:47;100393.19;;;3.10;100.00
43745;BME280;29359;53.048;8.732;2023-02-24T10:35:51;100416.66;;;3.13;100.00
43745;BME280;29359;53.048;8.732;2023-02-24T10:38:03;100401.00;;;3.10;100.00
43745;BME280;29359;53.048;8.732;2023-02-24T10:40:09;100388.84;;;3.11;100.00
43745;BME280;29359;53.048;8.732;2023-02-24T10:42:28;100396.69;;;3.09;100.00
43745;BME280;29359;53.048;8.732;2023-02-24T10:44:32;100394.06;;;3.09;100.00
43745;BME280;29359;53.048;8.732;2023-02-24T10:46:36;100372.31;;;3.13;100.00
43745;BME280;29359;53.048;8.732;2023-02-24T10:48:51;100381.00;;;3.15;100.00
43745;BME280;29359;53.048;8.732;2023-02-24T10:50:54;100371.44;;;3.16;100.00
43745;BME280;29359;53.048;8.732;2023-02-24T10:53:13;100382.72;;;3.15;100.00
43745;BME280;29359;53.048;8.732;2023-02-24T10:55:32;100380.13;;;3.12;100.00
43745;BME280;29359;53.048;8.732;2023-02-24T10:57:46;100382.75;;;3.10;100.00
43745;BME280;29359;53.048;8.732;2023-02-24T10:59:59;100375.81;;;3.06;100.00
43745;BME280;29359;53.048;8.732;2023-02-24T11:02:23;100362.78;;;3.06;100.00
43745;BME280;29359;53.048;8.732;2023-02-24T11:04:33;100358.41;;;3.10;100.00
43745;BME280;29359;53.048;8.732;2023-02-24T11:07:26;100358.41;;;3.13;100.00
43745;BME280;29359;53.048;8.732;2023-02-24T11:09:44;100348.81;;;3.17;100.00
43745;BME280;29359;53.048;8.732;2023-02-24T11:12:04;100352.28;;;3.17;100.00
43745;BME280;29359;53.048;8.732;2023-02-24T11:14:25;100343.59;;;3.15;100.00
43745;BME280;29359;53.048;8.732;2023-02-24T11:16:52;100341.88;;;3.15;100.00
43745;BME280;29359;53.048;8.732;2023-02-24T11:19:12;100337.50;;;3.16;100.00
43745;BME280;29359;53.048;8.732;2023-02-24T11:21:15;100336.63;;;3.20;100.00
43745;BME280;29359;53.048;8.732;2023-02-24T11:25:40;100333.09;;;3.26;100.00
43745;BME280;29359;53.048;8.732;2023-02-24T11:27:42;100320.00;;;3.32;100.00
43745;BME280;29359;53.048;8.732;2023-02-24T11:30:14;100331.25;;;3.41;100.00
43745;BME280;29359;53.048;8.732;2023-02-24T11:34:59;100310.34;;;3.44;100.00
43745;BME280;29359;53.048;8.732;2023-02-24T11:41:50;100293.78;;;3.53;100.00
43745;BME280;29359;53.048;8.732;2023-02-24T11:43:58;100305.94;;;3.56;100.00
43745;BME280;29359;53.048;8.732;2023-02-24T11:46:08;100303.31;;;3.56;100.00
43745;BME280;29359;53.048;8.732;2023-02-24T11:48:20;100294.63;;;3.55;100.00
43745;BME280;29359;53.048;8.732;2023-02-24T11:50:40;100288.53;;;3.56;100.00
43745;BME280;29359;53.048;8.732;2023-02-24T11:52:44;100281.56;;;3.58;100.00
43745;BME280;29359;53.048;8.732;2023-02-24T11:54:52;100281.53;;;3.61;100.00